Terminal Aerodrome Forecast
Issued by NWS Sterling, VA

Current Version | Previous Version | Graphics & Text | Print | Product List | Glossary On
Versions: 1 2 3 4 5 6 7 8 9 10 11 12 13 14 15 16 17 18 19 20 21
000
FTUS41 KLWX 190536
TAFMRB
TAF
KMRB 190536Z 1906/2006 VRB03KT 5SM -RA BR OVC015
     FM190800 05005KT 1 1/2SM -RA BR OVC008
     FM191500 11004KT 2SM -RA OVC008
     FM191800 15006KT P6SM OVC008
     FM192100 16009KT P6SM BKN010=

USA.gov is the U.S. government's official web portal to all federal, state and local government web resources and services.